sensor_id;sensor_type;location;lat;lon;timestamp;temperature;humidity
18101;DHT22;9177;49.156;8.142;2023-06-26T00:01:32;26.90;95.40
18101;DHT22;9177;49.156;8.142;2023-06-26T00:04:00;26.90;95.40
18101;DHT22;9177;49.156;8.142;2023-06-26T00:06:27;26.90;95.40
18101;DHT22;9177;49.156;8.142;2023-06-26T00:08:55;26.90;95.40
18101;DHT22;9177;49.156;8.142;2023-06-26T00:11:22;26.90;95.40
18101;DHT22;9177;49.156;8.142;2023-06-26T00:13:49;26.90;95.40
18101;DHT22;9177;49.156;8.142;2023-06-26T00:16:17;26.90;95.40
18101;DHT22;9177;49.156;8.142;2023-06-26T00:18:44;26.90;95.40
18101;DHT22;9177;49.156;8.142;2023-06-26T00:21:11;26.90;95.40
18101;DHT22;9177;49.156;8.142;2023-06-26T00:23:38;26.90;95.40
18101;DHT22;9177;49.156;8.142;2023-06-26T00:26:05;26.90;95.40
18101;DHT22;9177;49.156;8.142;2023-06-26T00:28:31;26.90;95.40
18101;DHT22;9177;49.156;8.142;2023-06-26T00:30:58;26.90;95.40
18101;DHT22;9177;49.156;8.142;2023-06-26T00:33:26;26.90;95.40
18101;DHT22;9177;49.156;8.142;2023-06-26T00:35:53;26.90;95.40
18101;DHT22;9177;49.156;8.142;2023-06-26T00:38:20;26.80;95.40
18101;DHT22;9177;49.156;8.142;2023-06-26T00:40:47;26.90;95.40
18101;DHT22;9177;49.156;8.142;2023-06-26T00:43:14;26.90;95.40
18101;DHT22;9177;49.156;8.142;2023-06-26T00:45:41;26.90;95.40
18101;DHT22;9177;49.156;8.142;2023-06-26T00:48:09;26.80;95.40
18101;DHT22;9177;49.156;8.142;2023-06-26T00:50:38;26.80;95.40
18101;DHT22;9177;49.156;8.142;2023-06-26T00:53:06;26.80;95.40
18101;DHT22;9177;49.156;8.142;2023-06-26T00:55:32;26.80;95.40
18101;DHT22;9177;49.156;8.142;2023-06-26T00:57:59;26.80;95.40
18101;DHT22;9177;49.156;8.142;2023-06-26T01:00:26;26.80;95.40
18101;DHT22;9177;49.156;8.142;2023-06-26T01:02:53;26.80;95.40
18101;DHT22;9177;49.156;8.142;2023-06-26T01:05:24;26.80;95.40
18101;DHT22;9177;49.156;8.142;2023-06-26T01:07:54;26.80;95.40
18101;DHT22;9177;49.156;8.142;2023-06-26T01:10:21;26.80;95.40
18101;DHT22;9177;49.156;8.142;2023-06-26T01:12:49;26.80;95.40
18101;DHT22;9177;49.156;8.142;2023-06-26T01:15:16;26.80;95.40
18101;DHT22;9177;49.156;8.142;2023-06-26T01:17:42;26.80;95.40
18101;DHT22;9177;49.156;8.142;2023-06-26T01:20:13;26.80;95.40
18101;DHT22;9177;49.156;8.142;2023-06-26T01:22:46;26.80;95.40
18101;DHT22;9177;49.156;8.142;2023-06-26T01:25:21;26.80;95.40
18101;DHT22;9177;49.156;8.142;2023-06-26T01:27:52;26.80;95.40
18101;DHT22;9177;49.156;8.142;2023-06-26T01:30:21;26.80;95.40
18101;DHT22;9177;49.156;8.142;2023-06-26T01:32:49;26.80;95.40
18101;DHT22;9177;49.156;8.142;2023-06-26T01:35:16;26.80;95.40
18101;DHT22;9177;49.156;8.142;2023-06-26T01:37:43;26.80;95.40
18101;DHT22;9177;49.156;8.142;2023-06-26T01:40:10;26.80;95.40
18101;DHT22;9177;49.156;8.142;2023-06-26T01:42:37;26.80;95.40
18101;DHT22;9177;49.156;8.142;2023-06-26T01:45:12;26.80;95.40
18101;DHT22;9177;49.156;8.142;2023-06-26T01:47:42;26.80;95.40
18101;DHT22;9177;49.156;8.142;2023-06-26T01:50:12;26.80;95.40
18101;DHT22;9177;49.156;8.142;2023-06-26T01:52:42;26.80;95.40
18101;DHT22;9177;49.156;8.142;2023-06-26T01:55:15;26.80;95.40
18101;DHT22;9177;49.156;8.142;2023-06-26T01:57:44;26.80;95.40
18101;DHT22;9177;49.156;8.142;2023-06-26T02:00:14;26.80;95.40
18101;DHT22;9177;49.156;8.142;2023-06-26T02:02:43;26.80;95.40
18101;DHT22;9177;49.156;8.142;2023-06-26T02:05:11;26.80;95.40
18101;DHT22;9177;49.156;8.142;2023-06-26T02:07:38;26.80;95.40
18101;DHT22;9177;49.156;8.142;2023-06-26T02:10:06;26.80;95.40
18101;DHT22;9177;49.156;8.142;2023-06-26T02:12:33;26.80;95.40
18101;DHT22;9177;49.156;8.142;2023-06-26T02:15:01;26.80;95.40
18101;DHT22;9177;49.156;8.142;2023-06-26T02:17:29;26.80;95.40
18101;DHT22;9177;49.156;8.142;2023-06-26T02:19:56;26.80;95.40
18101;DHT22;9177;49.156;8.142;2023-06-26T02:22:23;26.80;95.40
18101;DHT22;9177;49.156;8.142;2023-06-26T02:24:50;26.70;95.40
18101;DHT22;9177;49.156;8.142;2023-06-26T02:27:17;26.80;95.40
18101;DHT22;9177;49.156;8.142;2023-06-26T02:29:43;26.80;95.40
18101;DHT22;9177;49.156;8.142;2023-06-26T02:32:10;26.80;95.40
18101;DHT22;9177;49.156;8.142;2023-06-26T02:34:39;26.70;95.40
18101;DHT22;9177;49.156;8.142;2023-06-26T02:37:05;26.70;95.40
18101;DHT22;9177;49.156;8.142;2023-06-26T02:39:33;26.70;95.40
18101;DHT22;9177;49.156;8.142;2023-06-26T02:42:02;26.70;95.40
18101;DHT22;9177;49.156;8.142;2023-06-26T02:44:29;26.70;95.40
18101;DHT22;9177;49.156;8.142;2023-06-26T02:46:56;26.70;95.40
18101;DHT22;9177;49.156;8.142;2023-06-26T02:49:23;26.70;95.40
18101;DHT22;9177;49.156;8.142;2023-06-26T02:51:51;26.70;95.40
18101;DHT22;9177;49.156;8.142;2023-06-26T02:54:17;26.70;95.40
18101;DHT22;9177;49.156;8.142;2023-06-26T02:56:44;26.70;95.40
18101;DHT22;9177;49.156;8.142;2023-06-26T02:59:11;26.70;95.40
18101;DHT22;9177;49.156;8.142;2023-06-26T03:01:38;26.70;95.40
18101;DHT22;9177;49.156;8.142;2023-06-26T03:04:04;26.70;95.40
18101;DHT22;9177;49.156;8.142;2023-06-26T03:06:31;26.70;95.40
18101;DHT22;9177;49.156;8.142;2023-06-26T03:08:59;26.70;95.40
18101;DHT22;9177;49.156;8.142;2023-06-26T03:11:26;26.70;95.40
18101;DHT22;9177;49.156;8.142;2023-06-26T03:13:53;26.70;95.40
18101;DHT22;9177;49.156;8.142;2023-06-26T03:16:20;26.70;95.40
18101;DHT22;9177;49.156;8.142;2023-06-26T03:18:47;26.70;95.40
18101;DHT22;9177;49.156;8.142;2023-06-26T03:21:13;26.70;95.40
18101;DHT22;9177;49.156;8.142;2023-06-26T03:23:40;26.70;95.40
18101;DHT22;9177;49.156;8.142;2023-06-26T03:26:08;26.70;95.50
18101;DHT22;9177;49.156;8.142;2023-06-26T03:28:35;26.70;95.40
18101;DHT22;9177;49.156;8.142;2023-06-26T03:31:02;26.70;95.40
18101;DHT22;9177;49.156;8.142;2023-06-26T03:33:29;26.70;95.40
18101;DHT22;9177;49.156;8.142;2023-06-26T03:35:56;26.70;95.40
18101;DHT22;9177;49.156;8.142;2023-06-26T03:38:23;26.70;95.40
18101;DHT22;9177;49.156;8.142;2023-06-26T03:40:51;26.70;95.40
18101;DHT22;9177;49.156;8.142;2023-06-26T03:43:19;26.70;95.40
18101;DHT22;9177;49.156;8.142;2023-06-26T03:45:46;26.70;95.40
18101;DHT22;9177;49.156;8.142;2023-06-26T03:48:13;26.70;95.40
18101;DHT22;9177;49.156;8.142;2023-06-26T03:50:40;26.70;95.40
18101;DHT22;9177;49.156;8.142;2023-06-26T03:53:06;26.70;95.40
18101;DHT22;9177;49.156;8.142;2023-06-26T03:55:33;26.70;95.40
18101;DHT22;9177;49.156;8.142;2023-06-26T03:58:00;26.70;95.40
18101;DHT22;9177;49.156;8.142;2023-06-26T04:00:29;26.70;95.40
18101;DHT22;9177;49.156;8.142;2023-06-26T04:02:55;26.70;95.40
18101;DHT22;9177;49.156;8.142;2023-06-26T04:05:22;26.70;95.40
18101;DHT22;9177;49.156;8.142;2023-06-26T04:07:50;26.70;95.40
18101;DHT22;9177;49.156;8.142;2023-06-26T04:10:17;26.70;95.40
18101;DHT22;9177;49.156;8.142;2023-06-26T04:12:45;26.70;95.40
18101;DHT22;9177;49.156;8.142;2023-06-26T04:15:12;26.70;95.40
18101;DHT22;9177;49.156;8.142;2023-06-26T04:17:40;26.70;95.40
18101;DHT22;9177;49.156;8.142;2023-06-26T04:20:08;26.70;95.40
18101;DHT22;9177;49.156;8.142;2023-06-26T04:22:35;26.70;95.40
18101;DHT22;9177;49.156;8.142;2023-06-26T04:25:03;26.70;95.40
18101;DHT22;9177;49.156;8.142;2023-06-26T04:27:30;26.60;95.40
18101;DHT22;9177;49.156;8.142;2023-06-26T04:29:57;26.60;95.40
18101;DHT22;9177;49.156;8.142;2023-06-26T04:32:24;26.70;95.40
18101;DHT22;9177;49.156;8.142;2023-06-26T04:34:52;26.60;95.40
18101;DHT22;9177;49.156;8.142;2023-06-26T04:37:19;26.60;95.40
18101;DHT22;9177;49.156;8.142;2023-06-26T04:39:46;26.60;95.40
18101;DHT22;9177;49.156;8.142;2023-06-26T04:42:13;26.60;95.40
18101;DHT22;9177;49.156;8.142;2023-06-26T04:44:39;26.60;95.40
18101;DHT22;9177;49.156;8.142;2023-06-26T04:47:07;26.60;95.40
18101;DHT22;9177;49.156;8.142;2023-06-26T04:49:34;26.60;95.40
18101;DHT22;9177;49.156;8.142;2023-06-26T04:52:02;26.60;95.40
18101;DHT22;9177;49.156;8.142;2023-06-26T04:54:30;26.60;95.40
18101;DHT22;9177;49.156;8.142;2023-06-26T04:56:56;26.60;95.40
18101;DHT22;9177;49.156;8.142;2023-06-26T04:59:25;26.60;95.40
18101;DHT22;9177;49.156;8.142;2023-06-26T05:01:52;26.60;95.40
18101;DHT22;9177;49.156;8.142;2023-06-26T05:04:18;26.60;95.40
18101;DHT22;9177;49.156;8.142;2023-06-26T05:06:45;26.60;95.40
18101;DHT22;9177;49.156;8.142;2023-06-26T05:09:13;26.60;95.40
18101;DHT22;9177;49.156;8.142;2023-06-26T05:11:40;26.60;95.40
18101;DHT22;9177;49.156;8.142;2023-06-26T05:14:07;26.70;95.40
18101;DHT22;9177;49.156;8.142;2023-06-26T05:16:34;26.60;95.40
18101;DHT22;9177;49.156;8.142;2023-06-26T05:19:01;26.60;95.40
18101;DHT22;9177;49.156;8.142;2023-06-26T05:21:28;26.70;95.40
18101;DHT22;9177;49.156;8.142;2023-06-26T05:23:56;26.60;95.40
18101;DHT22;9177;49.156;8.142;2023-06-26T05:26:26;26.70;95.40
18101;DHT22;9177;49.156;8.142;2023-06-26T05:28:54;26.70;95.40
18101;DHT22;9177;49.156;8.142;2023-06-26T05:31:21;26.70;95.40
18101;DHT22;9177;49.156;8.142;2023-06-26T05:33:49;26.70;95.40
18101;DHT22;9177;49.156;8.142;2023-06-26T05:36:16;26.70;95.40
18101;DHT22;9177;49.156;8.142;2023-06-26T05:38:45;26.70;95.40
18101;DHT22;9177;49.156;8.142;2023-06-26T05:41:12;26.70;95.40
18101;DHT22;9177;49.156;8.142;2023-06-26T05:43:41;26.70;95.40
18101;DHT22;9177;49.156;8.142;2023-06-26T05:46:07;26.70;95.40
18101;DHT22;9177;49.156;8.142;2023-06-26T05:48:34;26.60;95.40
18101;DHT22;9177;49.156;8.142;2023-06-26T05:51:02;26.70;95.40
18101;DHT22;9177;49.156;8.142;2023-06-26T05:53:30;26.70;95.40
18101;DHT22;9177;49.156;8.142;2023-06-26T05:55:57;26.70;95.40
18101;DHT22;9177;49.156;8.142;2023-06-26T05:58:26;26.70;95.40
18101;DHT22;9177;49.156;8.142;2023-06-26T06:00:54;26.70;95.40
18101;DHT22;9177;49.156;8.142;2023-06-26T06:03:21;26.70;95.40
18101;DHT22;9177;49.156;8.142;2023-06-26T06:05:48;26.70;95.40
18101;DHT22;9177;49.156;8.142;2023-06-26T06:08:15;26.70;95.40
18101;DHT22;9177;49.156;8.142;2023-06-26T06:10:42;26.70;95.40
18101;DHT22;9177;49.156;8.142;2023-06-26T06:13:09;26.70;95.80
18101;DHT22;9177;49.156;8.142;2023-06-26T06:15:36;26.70;95.40
18101;DHT22;9177;49.156;8.142;2023-06-26T06:18:04;26.70;95.40
18101;DHT22;9177;49.156;8.142;2023-06-26T06:20:31;26.70;95.40
18101;DHT22;9177;49.156;8.142;2023-06-26T06:22:58;26.70;95.40
18101;DHT22;9177;49.156;8.142;2023-06-26T06:25:25;26.70;95.40
18101;DHT22;9177;49.156;8.142;2023-06-26T06:27:52;26.70;95.40
18101;DHT22;9177;49.156;8.142;2023-06-26T06:30:19;26.70;95.50
18101;DHT22;9177;49.156;8.142;2023-06-26T06:32:49;26.70;95.40
18101;DHT22;9177;49.156;8.142;2023-06-26T06:35:19;26.70;95.40
18101;DHT22;9177;49.156;8.142;2023-06-26T06:37:46;26.70;95.40
18101;DHT22;9177;49.156;8.142;2023-06-26T06:40:14;26.70;95.40
18101;DHT22;9177;49.156;8.142;2023-06-26T06:42:41;26.70;95.40
18101;DHT22;9177;49.156;8.142;2023-06-26T06:45:09;26.70;95.40
18101;DHT22;9177;49.156;8.142;2023-06-26T06:47:36;26.70;95.40
18101;DHT22;9177;49.156;8.142;2023-06-26T06:50:03;26.70;95.40
18101;DHT22;9177;49.156;8.142;2023-06-26T06:52:38;26.70;95.40
18101;DHT22;9177;49.156;8.142;2023-06-26T06:55:07;26.70;95.40
18101;DHT22;9177;49.156;8.142;2023-06-26T06:57:35;26.70;95.40
18101;DHT22;9177;49.156;8.142;2023-06-26T07:00:04;26.70;95.40
18101;DHT22;9177;49.156;8.142;2023-06-26T07:02:34;26.70;95.40
18101;DHT22;9177;49.156;8.142;2023-06-26T07:05:01;26.70;95.40
18101;DHT22;9177;49.156;8.142;2023-06-26T07:07:30;26.80;95.40
18101;DHT22;9177;49.156;8.142;2023-06-26T07:09:59;26.80;95.40
18101;DHT22;9177;49.156;8.142;2023-06-26T07:12:26;26.80;95.40
18101;DHT22;9177;49.156;8.142;2023-06-26T07:14:55;26.80;95.50
18101;DHT22;9177;49.156;8.142;2023-06-26T07:17:22;26.80;95.40
18101;DHT22;9177;49.156;8.142;2023-06-26T07:19:49;26.80;95.40
18101;DHT22;9177;49.156;8.142;2023-06-26T07:22:16;26.80;95.40
18101;DHT22;9177;49.156;8.142;2023-06-26T07:24:45;26.80;95.40
18101;DHT22;9177;49.156;8.142;2023-06-26T07:27:14;26.80;95.30
18101;DHT22;9177;49.156;8.142;2023-06-26T07:29:41;26.80;95.30
18101;DHT22;9177;49.156;8.142;2023-06-26T07:32:08;26.90;95.30
18101;DHT22;9177;49.156;8.142;2023-06-26T07:34:35;26.90;95.20
18101;DHT22;9177;49.156;8.142;2023-06-26T07:37:02;26.90;95.20
18101;DHT22;9177;49.156;8.142;2023-06-26T07:39:30;26.90;95.20
18101;DHT22;9177;49.156;8.142;2023-06-26T07:41:57;27.00;95.20
18101;DHT22;9177;49.156;8.142;2023-06-26T07:44:26;27.00;95.20
18101;DHT22;9177;49.156;8.142;2023-06-26T07:46:53;27.00;95.20
18101;DHT22;9177;49.156;8.142;2023-06-26T07:49:20;27.00;95.10
18101;DHT22;9177;49.156;8.142;2023-06-26T07:51:47;27.00;95.10
18101;DHT22;9177;49.156;8.142;2023-06-26T07:54:14;27.10;95.20
18101;DHT22;9177;49.156;8.142;2023-06-26T07:56:55;27.00;95.10
18101;DHT22;9177;49.156;8.142;2023-06-26T07:59:23;27.00;95.10
18101;DHT22;9177;49.156;8.142;2023-06-26T08:01:53;27.00;95.20
18101;DHT22;9177;49.156;8.142;2023-06-26T08:04:22;27.00;95.20
18101;DHT22;9177;49.156;8.142;2023-06-26T08:06:51;27.00;95.20
18101;DHT22;9177;49.156;8.142;2023-06-26T08:09:20;27.00;95.20
18101;DHT22;9177;49.156;8.142;2023-06-26T08:11:48;27.00;95.20
18101;DHT22;9177;49.156;8.142;2023-06-26T08:14:15;27.00;95.20
18101;DHT22;9177;49.156;8.142;2023-06-26T08:16:43;27.00;95.20
18101;DHT22;9177;49.156;8.142;2023-06-26T08:19:13;27.10;95.20
18101;DHT22;9177;49.156;8.142;2023-06-26T08:21:40;27.10;95.20
18101;DHT22;9177;49.156;8.142;2023-06-26T08:24:07;27.10;95.20
18101;DHT22;9177;49.156;8.142;2023-06-26T08:26:35;27.10;95.20
18101;DHT22;9177;49.156;8.142;2023-06-26T08:29:02;27.10;95.10
18101;DHT22;9177;49.156;8.142;2023-06-26T08:31:33;27.20;95.20
18101;DHT22;9177;49.156;8.142;2023-06-26T08:34:01;27.20;95.20
18101;DHT22;9177;49.156;8.142;2023-06-26T08:36:30;27.20;95.10
18101;DHT22;9177;49.156;8.142;2023-06-26T08:38:57;27.20;95.10
18101;DHT22;9177;49.156;8.142;2023-06-26T08:41:24;27.20;95.20
18101;DHT22;9177;49.156;8.142;2023-06-26T08:43:52;27.20;95.20
18101;DHT22;9177;49.156;8.142;2023-06-26T08:46:19;27.20;95.20
18101;DHT22;9177;49.156;8.142;2023-06-26T08:48:49;27.20;95.20
18101;DHT22;9177;49.156;8.142;2023-06-26T08:51:21;27.20;95.20
18101;DHT22;9177;49.156;8.142;2023-06-26T08:53:56;27.20;95.20
18101;DHT22;9177;49.156;8.142;2023-06-26T08:58:58;27.20;95.20
18101;DHT22;9177;49.156;8.142;2023-06-26T09:01:25;27.20;95.20
18101;DHT22;9177;49.156;8.142;2023-06-26T09:03:52;27.20;95.20
18101;DHT22;9177;49.156;8.142;2023-06-26T09:06:19;27.20;95.20
18101;DHT22;9177;49.156;8.142;2023-06-26T09:08:47;27.30;95.30
18101;DHT22;9177;49.156;8.142;2023-06-26T09:11:15;27.30;95.30
18101;DHT22;9177;49.156;8.142;2023-06-26T09:13:43;27.30;95.30
18101;DHT22;9177;49.156;8.142;2023-06-26T09:16:11;27.30;95.60
18101;DHT22;9177;49.156;8.142;2023-06-26T09:18:39;27.30;95.60
18101;DHT22;9177;49.156;8.142;2023-06-26T09:21:07;27.30;95.30
18101;DHT22;9177;49.156;8.142;2023-06-26T09:23:34;27.20;95.30
18101;DHT22;9177;49.156;8.142;2023-06-26T09:26:02;27.20;95.30
18101;DHT22;9177;49.156;8.142;2023-06-26T09:28:32;27.20;95.30
18101;DHT22;9177;49.156;8.142;2023-06-26T09:31:02;27.20;95.40
18101;DHT22;9177;49.156;8.142;2023-06-26T09:33:34;27.20;95.40
18101;DHT22;9177;49.156;8.142;2023-06-26T09:36:05;27.20;95.30
18101;DHT22;9177;49.156;8.142;2023-06-26T09:38:34;27.20;95.40
18101;DHT22;9177;49.156;8.142;2023-06-26T09:41:01;27.20;95.40
18101;DHT22;9177;49.156;8.142;2023-06-26T09:43:30;27.20;95.40
18101;DHT22;9177;49.156;8.142;2023-06-26T09:45:58;27.20;95.40
18101;DHT22;9177;49.156;8.142;2023-06-26T09:48:27;27.20;95.40
18101;DHT22;9177;49.156;8.142;2023-06-26T09:50:55;27.30;95.40
18101;DHT22;9177;49.156;8.142;2023-06-26T09:53:22;27.20;95.40
18101;DHT22;9177;49.156;8.142;2023-06-26T09:55:50;27.30;95.40
18101;DHT22;9177;49.156;8.142;2023-06-26T09:58:17;27.30;95.40
18101;DHT22;9177;49.156;8.142;2023-06-26T10:00:46;27.30;95.40
18101;DHT22;9177;49.156;8.142;2023-06-26T10:03:14;27.30;95.40
18101;DHT22;9177;49.156;8.142;2023-06-26T10:05:41;27.30;95.40
18101;DHT22;9177;49.156;8.142;2023-06-26T10:08:10;27.30;95.40
18101;DHT22;9177;49.156;8.142;2023-06-26T10:10:40;27.30;95.40
18101;DHT22;9177;49.156;8.142;2023-06-26T10:13:11;27.30;95.80
18101;DHT22;9177;49.156;8.142;2023-06-26T10:15:44;27.30;95.40
18101;DHT22;9177;49.156;8.142;2023-06-26T10:18:13;27.30;95.40
18101;DHT22;9177;49.156;8.142;2023-06-26T10:20:42;27.30;95.40
18101;DHT22;9177;49.156;8.142;2023-06-26T10:23:12;27.30;95.50
18101;DHT22;9177;49.156;8.142;2023-06-26T10:25:43;27.30;95.50
18101;DHT22;9177;49.156;8.142;2023-06-26T10:28:12;27.40;95.50
18101;DHT22;9177;49.156;8.142;2023-06-26T10:30:42;27.40;95.50
18101;DHT22;9177;49.156;8.142;2023-06-26T10:33:13;27.40;95.50
18101;DHT22;9177;49.156;8.142;2023-06-26T10:35:43;27.40;95.50
18101;DHT22;9177;49.156;8.142;2023-06-26T10:38:11;27.40;95.50
18101;DHT22;9177;49.156;8.142;2023-06-26T10:40:41;27.40;95.50
18101;DHT22;9177;49.156;8.142;2023-06-26T10:43:09;27.40;95.50
18101;DHT22;9177;49.156;8.142;2023-06-26T10:45:43;27.40;95.50
18101;DHT22;9177;49.156;8.142;2023-06-26T10:48:15;27.40;95.50
18101;DHT22;9177;49.156;8.142;2023-06-26T10:50:42;27.40;95.50
18101;DHT22;9177;49.156;8.142;2023-06-26T10:53:15;27.40;95.50
18101;DHT22;9177;49.156;8.142;2023-06-26T10:55:48;27.50;95.50
18101;DHT22;9177;49.156;8.142;2023-06-26T10:58:30;27.40;95.50
18101;DHT22;9177;49.156;8.142;2023-06-26T11:01:19;27.40;95.50
18101;DHT22;9177;49.156;8.142;2023-06-26T11:03:59;27.40;95.50
18101;DHT22;9177;49.156;8.142;2023-06-26T11:06:28;27.40;95.50
18101;DHT22;9177;49.156;8.142;2023-06-26T11:09:01;27.50;95.50
18101;DHT22;9177;49.156;8.142;2023-06-26T11:11:55;27.50;95.50
18101;DHT22;9177;49.156;8.142;2023-06-26T11:14:26;27.50;95.50
18101;DHT22;9177;49.156;8.142;2023-06-26T11:16:55;27.50;95.50
18101;DHT22;9177;49.156;8.142;2023-06-26T11:19:26;27.50;95.50
18101;DHT22;9177;49.156;8.142;2023-06-26T11:22:04;27.50;95.50
18101;DHT22;9177;49.156;8.142;2023-06-26T11:24:32;27.50;95.50
18101;DHT22;9177;49.156;8.142;2023-06-26T11:27:01;27.50;95.50
18101;DHT22;9177;49.156;8.142;2023-06-26T11:29:30;27.50;95.50
18101;DHT22;9177;49.156;8.142;2023-06-26T11:32:04;27.50;95.50
18101;DHT22;9177;49.156;8.142;2023-06-26T11:34:34;27.50;95.50
18101;DHT22;9177;49.156;8.142;2023-06-26T11:37:03;27.50;95.50
18101;DHT22;9177;49.156;8.142;2023-06-26T11:39:30;27.50;95.50
18101;DHT22;9177;49.156;8.142;2023-06-26T11:41:59;27.50;95.50
18101;DHT22;9177;49.156;8.142;2023-06-26T11:44:29;27.50;95.60
18101;DHT22;9177;49.156;8.142;2023-06-26T11:46:57;27.50;95.60
18101;DHT22;9177;49.156;8.142;2023-06-26T11:49:24;27.60;95.70
18101;DHT22;9177;49.156;8.142;2023-06-26T11:51:54;27.60;95.70
18101;DHT22;9177;49.156;8.142;2023-06-26T11:54:27;27.60;95.70
18101;DHT22;9177;49.156;8.142;2023-06-26T11:56:56;27.70;95.60
18101;DHT22;9177;49.156;8.142;2023-06-26T11:59:24;27.70;95.60
18101;DHT22;9177;49.156;8.142;2023-06-26T12:01:58;27.70;95.60
18101;DHT22;9177;49.156;8.142;2023-06-26T12:04:26;27.70;95.60
18101;DHT22;9177;49.156;8.142;2023-06-26T12:06:55;27.70;95.50
18101;DHT22;9177;49.156;8.142;2023-06-26T12:09:24;27.80;95.60
18101;DHT22;9177;49.156;8.142;2023-06-26T12:11:53;27.80;95.60
18101;DHT22;9177;49.156;8.142;2023-06-26T12:14:22;27.80;95.50
18101;DHT22;9177;49.156;8.142;2023-06-26T12:16:51;27.80;95.50
18101;DHT22;9177;49.156;8.142;2023-06-26T12:19:24;27.80;95.50
18101;DHT22;9177;49.156;8.142;2023-06-26T12:21:52;27.80;95.40
18101;DHT22;9177;49.156;8.142;2023-06-26T12:24:22;27.90;95.40
18101;DHT22;9177;49.156;8.142;2023-06-26T12:26:52;27.80;95.40
18101;DHT22;9177;49.156;8.142;2023-06-26T12:29:29;27.90;95.40
18101;DHT22;9177;49.156;8.142;2023-06-26T12:31:58;27.90;95.80
18101;DHT22;9177;49.156;8.142;2023-06-26T12:34:27;27.90;95.40
18101;DHT22;9177;49.156;8.142;2023-06-26T12:37:00;28.00;95.50
18101;DHT22;9177;49.156;8.142;2023-06-26T12:39:29;28.00;95.40
18101;DHT22;9177;49.156;8.142;2023-06-26T12:42:00;28.00;95.30
18101;DHT22;9177;49.156;8.142;2023-06-26T12:44:30;28.00;95.40
18101;DHT22;9177;49.156;8.142;2023-06-26T12:46:59;28.00;95.40
18101;DHT22;9177;49.156;8.142;2023-06-26T12:49:31;28.10;95.40
18101;DHT22;9177;49.156;8.142;2023-06-26T12:51:59;28.10;95.40
18101;DHT22;9177;49.156;8.142;2023-06-26T12:54:28;28.10;95.30
18101;DHT22;9177;49.156;8.142;2023-06-26T12:56:56;28.10;95.30
18101;DHT22;9177;49.156;8.142;2023-06-26T12:59:23;28.10;95.30
18101;DHT22;9177;49.156;8.142;2023-06-26T13:01:50;28.10;95.30
18101;DHT22;9177;49.156;8.142;2023-06-26T13:04:18;28.10;95.30
18101;DHT22;9177;49.156;8.142;2023-06-26T13:06:45;28.10;95.30
18101;DHT22;9177;49.156;8.142;2023-06-26T13:09:13;28.10;95.20
18101;DHT22;9177;49.156;8.142;2023-06-26T13:11:41;28.20;95.30
18101;DHT22;9177;49.156;8.142;2023-06-26T13:14:08;28.20;95.20
18101;DHT22;9177;49.156;8.142;2023-06-26T13:16:36;28.20;95.20
18101;DHT22;9177;49.156;8.142;2023-06-26T13:19:03;28.20;95.20
18101;DHT22;9177;49.156;8.142;2023-06-26T13:21:30;28.20;95.20
18101;DHT22;9177;49.156;8.142;2023-06-26T13:23:57;28.30;95.20
18101;DHT22;9177;49.156;8.142;2023-06-26T13:26:25;28.30;95.20
18101;DHT22;9177;49.156;8.142;2023-06-26T13:28:55;28.30;95.60
18101;DHT22;9177;49.156;8.142;2023-06-26T13:31:23;28.30;95.20
18101;DHT22;9177;49.156;8.142;2023-06-26T13:33:50;28.30;95.20
18101;DHT22;9177;49.156;8.142;2023-06-26T13:36:18;28.30;95.10
18101;DHT22;9177;49.156;8.142;2023-06-26T13:38:45;28.30;95.10
18101;DHT22;9177;49.156;8.142;2023-06-26T13:41:14;28.30;95.10
18101;DHT22;9177;49.156;8.142;2023-06-26T13:43:41;28.30;95.10
18101;DHT22;9177;49.156;8.142;2023-06-26T13:46:10;28.40;95.10
18101;DHT22;9177;49.156;8.142;2023-06-26T13:48:37;28.40;95.00
18101;DHT22;9177;49.156;8.142;2023-06-26T13:51:04;28.30;95.00
18101;DHT22;9177;49.156;8.142;2023-06-26T13:53:31;28.40;95.00
18101;DHT22;9177;49.156;8.142;2023-06-26T13:55:58;28.40;95.00
18101;DHT22;9177;49.156;8.142;2023-06-26T13:58:25;28.40;95.00
18101;DHT22;9177;49.156;8.142;2023-06-26T14:00:54;28.40;95.00
18101;DHT22;9177;49.156;8.142;2023-06-26T14:03:23;28.40;94.90
18101;DHT22;9177;49.156;8.142;2023-06-26T14:05:50;28.40;94.90
18101;DHT22;9177;49.156;8.142;2023-06-26T14:08:17;28.40;94.90
18101;DHT22;9177;49.156;8.142;2023-06-26T14:10:44;28.40;94.90
18101;DHT22;9177;49.156;8.142;2023-06-26T14:13:12;28.40;94.80
18101;DHT22;9177;49.156;8.142;2023-06-26T14:15:42;28.40;94.90
18101;DHT22;9177;49.156;8.142;2023-06-26T14:18:09;28.40;94.80
18101;DHT22;9177;49.156;8.142;2023-06-26T14:20:38;28.40;94.50
18101;DHT22;9177;49.156;8.142;2023-06-26T14:23:05;28.30;91.70
18101;DHT22;9177;49.156;8.142;2023-06-26T14:25:32;28.30;92.70
18101;DHT22;9177;49.156;8.142;2023-06-26T14:28:00;28.20;92.00
18101;DHT22;9177;49.156;8.142;2023-06-26T14:30:27;28.10;91.50
18101;DHT22;9177;49.156;8.142;2023-06-26T14:32:54;28.10;90.30
18101;DHT22;9177;49.156;8.142;2023-06-26T14:35:21;28.00;89.60
18101;DHT22;9177;49.156;8.142;2023-06-26T14:37:50;28.00;89.50
18101;DHT22;9177;49.156;8.142;2023-06-26T14:40:17;27.90;88.90
18101;DHT22;9177;49.156;8.142;2023-06-26T14:42:44;27.80;88.20
18101;DHT22;9177;49.156;8.142;2023-06-26T14:45:12;27.80;87.00
18101;DHT22;9177;49.156;8.142;2023-06-26T14:47:39;27.70;87.40
18101;DHT22;9177;49.156;8.142;2023-06-26T14:50:07;27.70;86.50
18101;DHT22;9177;49.156;8.142;2023-06-26T14:52:34;27.70;86.10
18101;DHT22;9177;49.156;8.142;2023-06-26T14:55:04;27.70;86.00
18101;DHT22;9177;49.156;8.142;2023-06-26T14:57:31;27.70;84.20
18101;DHT22;9177;49.156;8.142;2023-06-26T14:59:58;27.70;84.80
18101;DHT22;9177;49.156;8.142;2023-06-26T15:02:25;27.60;84.00
18101;DHT22;9177;49.156;8.142;2023-06-26T15:04:52;27.60;84.40
18101;DHT22;9177;49.156;8.142;2023-06-26T15:07:20;27.70;84.00
18101;DHT22;9177;49.156;8.142;2023-06-26T15:09:47;27.70;84.10
18101;DHT22;9177;49.156;8.142;2023-06-26T15:12:15;27.80;84.00
18101;DHT22;9177;49.156;8.142;2023-06-26T15:14:43;27.80;83.90
18101;DHT22;9177;49.156;8.142;2023-06-26T15:17:10;27.80;83.60
18101;DHT22;9177;49.156;8.142;2023-06-26T15:19:38;27.80;83.10
18101;DHT22;9177;49.156;8.142;2023-06-26T15:22:05;27.80;82.40
18101;DHT22;9177;49.156;8.142;2023-06-26T15:24:32;27.80;82.50
18101;DHT22;9177;49.156;8.142;2023-06-26T15:26:59;27.70;82.70
18101;DHT22;9177;49.156;8.142;2023-06-26T15:29:28;27.70;82.20
18101;DHT22;9177;49.156;8.142;2023-06-26T15:31:55;27.60;82.00
18101;DHT22;9177;49.156;8.142;2023-06-26T15:34:22;27.60;82.30
18101;DHT22;9177;49.156;8.142;2023-06-26T15:36:50;27.60;82.30
18101;DHT22;9177;49.156;8.142;2023-06-26T15:39:17;27.60;82.00
18101;DHT22;9177;49.156;8.142;2023-06-26T15:41:44;27.60;82.30
18101;DHT22;9177;49.156;8.142;2023-06-26T15:44:12;27.60;82.30
18101;DHT22;9177;49.156;8.142;2023-06-26T15:46:40;27.60;82.30
18101;DHT22;9177;49.156;8.142;2023-06-26T15:49:08;27.60;82.20
18101;DHT22;9177;49.156;8.142;2023-06-26T15:51:36;27.60;82.70
18101;DHT22;9177;49.156;8.142;2023-06-26T15:54:03;27.50;82.80